La Scie, Canada
Current Conditions -  °F | °C
As of 2:00 PM on Saturday 22 Nov 2014 (Local Time) from CYQX Reporting Station
Few Clouds Few Clouds  
Wind Chill:   Ceiling: Unl
Heat Index: 25°   Visibility: 20mi
Dew Point:   Wind: 30mph
Humidity: 50%   Direction: 280°W
Pressure: 29.57"   Gusts: 39mph
Location:  49.97°N, 55.58°W
Report Text: CYQX 221700Z 28026G34KT 20SM FEW038 M04/M13 A2957 RMK SC2 SLP022
Loading
Personal Weather Stations






























Interactive Weather Map New forecast layout! Learn more

10-Day Weather Forecast

Advertisements
Track Severe Weather on mobile